createdAt,value
2022-12-18T00:03:12.828Z,101780.47
2022-12-18T00:08:15.160Z,101775.25
2022-12-18T00:13:17.571Z,101774.38
2022-12-18T00:18:20.635Z,101801.97
2022-12-18T00:23:22.570Z,101811.22
2022-12-18T00:28:24.177Z,101801.84
2022-12-18T00:33:25.860Z,101805.53
2022-12-18T00:38:27.544Z,101809.75
2022-12-18T00:43:29.212Z,101821.47
2022-12-18T00:48:31.151Z,101825.09
2022-12-18T00:53:32.749Z,101831.28
2022-12-18T00:58:34.388Z,101828.78
2022-12-18T01:03:38.646Z,101827.91
2022-12-18T01:08:40.688Z,101832.34
2022-12-18T01:13:43.009Z,101834.09
2022-12-18T01:18:44.895Z,101832.53
2022-12-18T01:23:47.069Z,101845.72
2022-12-18T01:28:48.955Z,101861.84
2022-12-18T01:33:52.151Z,101859.00
2022-12-18T01:38:54.552Z,101853.81
2022-12-18T01:43:58.394Z,101866.69
2022-12-18T01:49:01.849Z,101852.78
2022-12-18T01:54:03.604Z,101846.88
2022-12-18T01:59:07.870Z,101859.66
2022-12-18T02:04:27.397Z,101871.41
2022-12-18T02:09:35.352Z,101867.88
2022-12-18T02:14:52.946Z,101864.25
2022-12-18T02:19:57.694Z,101855.59
2022-12-18T02:25:05.360Z,101859.22
2022-12-18T02:30:08.359Z,101864.25
2022-12-18T02:35:15.137Z,101871.22
2022-12-18T02:40:18.583Z,101876.50
2022-12-18T02:45:20.662Z,101862.84
2022-12-18T02:50:32.790Z,101869.63
2022-12-18T02:55:42.121Z,101865.88
2022-12-18T03:01:03.524Z,101870.19
2022-12-18T03:06:10.666Z,101863.91
2022-12-18T03:11:14.762Z,101863.31
2022-12-18T03:16:25.144Z,101872.69
2022-12-18T03:21:34.766Z,101883.13
2022-12-18T03:26:39.142Z,101888.41
2022-12-18T03:31:43.709Z,101877.19
2022-12-18T03:36:45.382Z,101874.59
2022-12-18T03:41:58.244Z,101891.91
2022-12-18T03:47:21.966Z,101886.56
2022-12-18T03:52:39.132Z,101892.06
2022-12-18T03:57:43.957Z,101895.53
2022-12-18T04:02:49.029Z,101896.50
2022-12-18T04:07:58.008Z,101896.78
2022-12-18T04:13:00.577Z,101897.66
2022-12-18T04:18:03.316Z,101908.06
2022-12-18T04:23:12.253Z,101920.25
2022-12-18T04:28:14.654Z,101911.78
2022-12-18T04:33:16.347Z,101915.94
2022-12-18T04:38:18.340Z,101902.88
2022-12-18T04:43:23.589Z,101919.56
2022-12-18T04:48:25.532Z,101918.84
2022-12-18T04:53:27.369Z,101928.31
2022-12-18T04:58:28.981Z,101915.31
2022-12-18T05:03:30.929Z,101914.38
2022-12-18T05:08:32.849Z,101918.06
2022-12-18T05:13:35.872Z,101920.59
2022-12-18T05:18:38.094Z,101918.00
2022-12-18T05:23:40.199Z,101915.31
2022-12-18T05:28:42.010Z,101916.31
2022-12-18T05:33:44.066Z,101927.59
2022-12-18T05:38:47.141Z,101917.22
2022-12-18T05:43:48.809Z,101921.59
2022-12-18T05:48:51.738Z,101931.16
2022-12-18T05:53:53.427Z,101918.09
2022-12-18T05:58:55.577Z,101932.94
2022-12-18T06:03:57.293Z,101934.84
2022-12-18T06:08:59.184Z,101936.56
2022-12-18T06:14:00.899Z,101944.44
2022-12-18T06:19:04.878Z,101939.16
2022-12-18T06:24:06.877Z,101954.88
2022-12-18T06:29:08.508Z,101953.19
2022-12-18T06:34:10.153Z,101950.50
2022-12-18T06:39:11.744Z,101966.25
2022-12-18T06:44:13.354Z,101959.31
2022-12-18T06:49:16.906Z,101959.16
2022-12-18T06:54:18.551Z,101976.63
2022-12-18T06:59:20.287Z,101967.91
2022-12-18T07:04:21.898Z,101983.50
2022-12-18T07:09:23.503Z,101982.66
2022-12-18T07:14:25.107Z,101988.81
2022-12-18T07:19:26.706Z,101990.56
2022-12-18T07:24:28.891Z,101993.16
2022-12-18T07:29:30.480Z,101994.94
2022-12-18T07:34:32.214Z,101994.91
2022-12-18T07:39:33.851Z,102008.72
2022-12-18T07:44:35.622Z,102013.09
2022-12-18T07:49:37.480Z,102013.03
2022-12-18T07:54:39.842Z,102020.06
2022-12-18T07:59:41.537Z,102024.34
2022-12-18T08:04:43.273Z,102016.53
2022-12-18T08:09:45.108Z,102009.56
2022-12-18T08:14:46.725Z,101995.56
2022-12-18T08:19:48.313Z,101991.19
2022-12-18T08:24:49.902Z,101992.94
2022-12-18T08:29:51.551Z,101993.81
2022-12-18T08:34:53.250Z,102002.53
2022-12-18T08:39:54.908Z,101999.91
2022-12-18T08:44:56.518Z,101999.03
2022-12-18T08:49:58.140Z,102005.03
2022-12-18T08:54:59.724Z,102005.84
2022-12-18T09:00:01.371Z,102019.69
2022-12-18T09:05:03.067Z,102016.09
2022-12-18T09:10:05.247Z,101998.69
2022-12-18T09:15:07.199Z,102011.72
2022-12-18T09:20:09.258Z,102029.94
2022-12-18T09:25:10.927Z,102035.78
2022-12-18T09:30:12.800Z,102039.19
2022-12-18T09:35:14.429Z,102029.66
2022-12-18T09:40:19.513Z,102031.16
2022-12-18T09:45:21.271Z,102029.22
2022-12-18T09:50:33.260Z,102032.34
2022-12-18T09:55:38.257Z,102021.69
2022-12-18T10:00:39.950Z,102024.06
2022-12-18T10:05:55.637Z,102002.91
2022-12-18T10:11:42.633Z,102000.03
2022-12-18T10:17:16.358Z,101978.78
2022-12-18T10:22:47.028Z,101978.63
2022-12-18T10:27:49.345Z,101953.22
2022-12-18T10:32:51.470Z,101951.38
2022-12-18T10:38:22.971Z,101931.28
2022-12-18T10:43:27.632Z,101940.72
2022-12-18T10:48:29.959Z,101923.75
2022-12-18T10:53:32.824Z,101929.06
2022-12-18T10:58:36.939Z,101931.47
2022-12-18T11:03:46.712Z,101934.13
2022-12-18T11:09:00.421Z,101931.22
2022-12-18T11:14:05.843Z,101927.59
2022-12-18T11:19:36.047Z,101914.28
2022-12-18T11:24:37.746Z,101903.81
2022-12-18T11:29:46.208Z,101898.47
2022-12-18T11:34:58.774Z,101915.75
2022-12-18T11:40:06.417Z,101896.56
2022-12-18T11:45:16.685Z,101894.66
2022-12-18T11:50:43.743Z,101896.38
2022-12-18T11:56:07.008Z,101904.00
2022-12-18T12:01:11.912Z,101919.00
2022-12-18T12:06:45.965Z,101905.88
2022-12-18T12:12:11.834Z,101916.25
2022-12-18T12:17:45.924Z,101917.03
2022-12-18T12:22:59.545Z,101934.44
2022-12-18T12:28:33.464Z,101929.31
2022-12-18T12:34:02.583Z,101930.94
2022-12-18T12:39:09.047Z,101946.91
2022-12-18T12:44:34.434Z,101948.38
2022-12-18T12:49:40.819Z,101957.09
2022-12-18T12:54:43.095Z,101933.50
2022-12-18T12:59:59.940Z,101937.94
2022-12-18T13:05:07.664Z,101937.97
2022-12-18T13:10:12.103Z,101930.91
2022-12-18T13:15:22.498Z,101920.47
2022-12-18T13:20:34.510Z,101913.44
2022-12-18T13:25:38.333Z,101926.03
2022-12-18T13:30:53.437Z,101918.81
2022-12-18T13:36:27.169Z,101932.78
2022-12-18T13:41:30.145Z,101922.38
2022-12-18T13:46:46.679Z,101917.19
2022-12-18T13:51:54.246Z,101915.28
2022-12-18T13:56:55.960Z,101908.31
2022-12-18T14:02:00.666Z,101915.50
2022-12-18T14:07:23.058Z,101921.84
2022-12-18T14:12:52.436Z,101928.97
2022-12-18T14:17:56.121Z,101929.84
2022-12-18T14:22:58.414Z,101923.72
2022-12-18T14:28:12.330Z,101905.31
2022-12-18T14:33:15.382Z,101914.09
2022-12-18T14:38:16.979Z,101898.53
2022-12-18T14:43:18.601Z,101884.66
2022-12-18T14:48:23.829Z,101899.50
2022-12-18T14:53:54.156Z,101893.47
2022-12-18T14:58:58.675Z,101908.34
2022-12-18T15:04:01.558Z,101908.50
2022-12-18T15:09:26.212Z,101908.56
2022-12-18T15:14:30.927Z,101893.91
2022-12-18T15:19:40.004Z,101894.72
2022-12-18T15:24:41.578Z,101882.47
2022-12-18T15:29:43.227Z,101887.81
2022-12-18T15:34:44.925Z,101890.78
2022-12-18T15:39:46.513Z,101870.44
2022-12-18T15:44:48.211Z,101875.75
2022-12-18T15:49:49.853Z,101866.03
2022-12-18T15:55:10.141Z,101875.16
2022-12-18T16:00:13.443Z,101867.31
2022-12-18T16:05:16.527Z,101866.41
2022-12-18T16:10:18.207Z,101857.59
2022-12-18T16:15:24.321Z,101854.19
2022-12-18T16:20:26.470Z,101845.56
2022-12-18T16:25:29.357Z,101849.13
2022-12-18T16:30:33.826Z,101857.59
2022-12-18T16:35:40.498Z,101852.47
2022-12-18T16:41:02.051Z,101855.16
2022-12-18T16:46:03.988Z,101847.22
2022-12-18T16:51:05.878Z,101837.56
2022-12-18T16:56:07.944Z,101840.19
2022-12-18T17:01:11.076Z,101847.94
2022-12-18T17:06:12.756Z,101847.00
2022-12-18T17:11:14.450Z,101836.63
2022-12-18T17:16:17.531Z,101830.50
2022-12-18T17:21:19.884Z,101830.50
2022-12-18T17:26:21.634Z,101824.25
2022-12-18T17:31:24.863Z,101828.63
2022-12-18T17:36:31.988Z,101803.41
2022-12-18T17:41:34.066Z,101817.25
2022-12-18T17:46:35.727Z,101805.94
2022-12-18T17:51:37.477Z,101793.50
2022-12-18T17:56:39.692Z,101794.44
2022-12-18T18:01:44.810Z,101803.09
2022-12-18T18:06:47.123Z,101790.03
2022-12-18T18:12:07.678Z,101789.00
2022-12-18T18:17:09.373Z,101786.25
2022-12-18T18:22:10.975Z,101786.38
2022-12-18T18:27:12.604Z,101793.25
2022-12-18T18:32:14.261Z,101780.13
2022-12-18T18:37:15.861Z,101777.50
2022-12-18T18:42:17.631Z,101770.41
2022-12-18T18:47:19.325Z,101774.69
2022-12-18T18:52:21.174Z,101764.22
2022-12-18T18:57:27.452Z,101745.84
2022-12-18T19:02:31.779Z,101751.94
2022-12-18T19:07:33.522Z,101737.09
2022-12-18T19:12:53.867Z,101730.88
2022-12-18T19:17:56.631Z,101718.72
2022-12-18T19:22:58.219Z,101705.41
2022-12-18T19:27:59.902Z,101712.28
2022-12-18T19:33:14.712Z,101700.03
2022-12-18T19:38:23.227Z,101694.84
2022-12-18T19:43:25.021Z,101678.25
2022-12-18T19:48:26.642Z,101666.78
2022-12-18T19:53:28.261Z,101671.13
2022-12-18T19:58:29.918Z,101672.91
2022-12-18T20:03:42.873Z,101660.63
2022-12-18T20:08:47.376Z,101663.19
2022-12-18T20:13:49.001Z,101664.75
2022-12-18T20:18:50.647Z,101666.50
2022-12-18T20:23:55.754Z,101674.50
2022-12-18T20:28:57.407Z,101665.66
2022-12-18T20:34:00.199Z,101666.53
2022-12-18T20:39:05.268Z,101651.38
2022-12-18T20:44:21.675Z,101650.63
2022-12-18T20:49:26.265Z,101652.41
2022-12-18T20:54:29.076Z,101628.63
2022-12-18T20:59:30.813Z,101623.44
2022-12-18T21:04:32.397Z,101634.63
2022-12-18T21:09:38.320Z,101631.91
2022-12-18T21:14:40.236Z,101636.16
2022-12-18T21:19:41.876Z,101644.91
2022-12-18T21:24:43.891Z,101635.28
2022-12-18T21:29:47.035Z,101622.34
2022-12-18T21:34:49.270Z,101620.47
2022-12-18T21:39:50.832Z,101636.22
2022-12-18T21:44:52.626Z,101632.84
2022-12-18T21:49:54.253Z,101635.50
2022-12-18T21:54:55.857Z,101627.19
2022-12-18T21:59:57.496Z,101624.13
2022-12-18T22:04:59.066Z,101614.41
2022-12-18T22:10:01.223Z,101598.00
2022-12-18T22:15:05.236Z,101609.25
2022-12-18T22:20:09.246Z,101621.72
2022-12-18T22:25:11.039Z,101619.00
2022-12-18T22:30:14.456Z,101615.63
2022-12-18T22:35:16.346Z,101599.00
2022-12-18T22:40:25.769Z,101599.81
2022-12-18T22:45:28.157Z,101588.50
2022-12-18T22:50:30.129Z,101602.44
2022-12-18T22:55:31.739Z,101575.97
2022-12-18T23:00:33.693Z,101556.03
2022-12-18T23:05:35.376Z,101562.28
2022-12-18T23:10:38.698Z,101550.19
2022-12-18T23:15:43.115Z,101542.25
2022-12-18T23:20:44.956Z,101528.31
2022-12-18T23:25:47.608Z,101516.94
2022-12-18T23:30:50.092Z,101534.44
2022-12-18T23:35:51.776Z,101523.22
2022-12-18T23:40:54.217Z,101483.78
2022-12-18T23:45:58.442Z,101480.53
2022-12-18T23:51:08.300Z,101462.06
2022-12-18T23:56:11.018Z,101452.63
